createdAt,value
2017-07-10T00:00:10.927Z,0
2017-07-10T00:00:51.393Z,0
2017-07-10T00:01:31.849Z,0
2017-07-10T00:02:12.315Z,0
2017-07-10T00:02:52.784Z,0
2017-07-10T00:03:33.239Z,0
2017-07-10T00:04:13.693Z,0
2017-07-10T00:04:54.157Z,0
2017-07-10T00:05:34.617Z,0
2017-07-10T00:06:15.071Z,0
2017-07-10T00:06:55.530Z,0
2017-07-10T00:07:35.994Z,0
2017-07-10T00:08:16.441Z,0
2017-07-10T00:08:56.893Z,0
2017-07-10T00:09:37.346Z,0
2017-07-10T00:10:17.809Z,0
2017-07-10T00:10:58.272Z,0
2017-07-10T00:11:38.777Z,0
2017-07-10T00:12:19.180Z,0
2017-07-10T00:12:59.656Z,0
2017-07-10T00:13:40.192Z,0
2017-07-10T00:14:20.646Z,0
2017-07-10T00:15:01.100Z,0
2017-07-10T00:15:41.557Z,0
2017-07-10T00:16:22.011Z,0
2017-07-10T00:17:02.471Z,0
2017-07-10T00:17:42.926Z,0
2017-07-10T00:18:23.379Z,0
2017-07-10T00:19:04.165Z,0
2017-07-10T00:19:45.534Z,0
2017-07-10T00:20:25.986Z,0
2017-07-10T00:21:06.450Z,0
2017-07-10T00:21:46.909Z,0
2017-07-10T00:22:27.769Z,0
2017-07-10T00:23:07.871Z,0
2017-07-10T00:23:48.332Z,0
2017-07-10T00:24:28.791Z,0
2017-07-10T00:25:09.249Z,0
2017-07-10T00:25:49.703Z,0
2017-07-10T00:26:30.166Z,0
2017-07-10T00:27:10.626Z,0
2017-07-10T00:27:51.169Z,0
2017-07-10T00:28:31.632Z,0
2017-07-10T00:29:12.083Z,0
2017-07-10T00:29:52.543Z,0
2017-07-10T00:30:33.005Z,0
2017-07-10T00:31:13.464Z,0
2017-07-10T00:31:53.925Z,0
2017-07-10T00:32:34.382Z,0
2017-07-10T00:33:14.836Z,0
2017-07-10T00:33:55.297Z,0
2017-07-10T00:34:35.763Z,0
2017-07-10T00:35:16.210Z,0
2017-07-10T00:35:56.758Z,0
2017-07-10T00:36:37.205Z,0
2017-07-10T00:37:17.662Z,0
2017-07-10T00:37:58.120Z,0
2017-07-10T00:38:38.584Z,0
2017-07-10T00:39:19.038Z,0
2017-07-10T00:39:59.497Z,0
2017-07-10T00:40:39.956Z,0
2017-07-10T00:41:20.413Z,0
2017-07-10T00:42:00.860Z,0
2017-07-10T00:42:41.314Z,0
2017-07-10T00:43:21.764Z,0
2017-07-10T00:44:02.222Z,0
2017-07-10T00:44:42.684Z,0
2017-07-10T00:45:23.140Z,0
2017-07-10T00:46:03.593Z,0
2017-07-10T00:46:44.059Z,0
2017-07-10T00:47:24.514Z,0
2017-07-10T00:48:04.973Z,0
2017-07-10T00:48:45.416Z,0
2017-07-10T00:49:25.869Z,0
2017-07-10T00:50:06.330Z,0
2017-07-10T00:50:46.788Z,0
2017-07-10T00:51:27.248Z,0
2017-07-10T00:52:07.706Z,0
2017-07-10T00:52:48.161Z,0
2017-07-10T00:53:28.619Z,0
2017-07-10T00:54:09.076Z,0
2017-07-10T00:54:49.534Z,0
2017-07-10T00:55:29.994Z,0
2017-07-10T00:56:10.450Z,0
2017-07-10T00:56:50.897Z,0
2017-07-10T00:57:31.348Z,0
2017-07-10T00:58:11.805Z,0
2017-07-10T00:58:52.260Z,0
2017-07-10T00:59:32.712Z,0
2017-07-10T01:00:13.168Z,0
2017-07-10T01:00:53.630Z,0
2017-07-10T01:01:34.081Z,0
2017-07-10T01:02:14.543Z,0
2017-07-10T01:02:54.997Z,0
2017-07-10T01:03:35.450Z,0
2017-07-10T01:04:15.911Z,0
2017-07-10T01:04:56.368Z,0
2017-07-10T01:05:36.814Z,0
2017-07-10T01:06:17.271Z,0
2017-07-10T01:06:57.729Z,0
2017-07-10T01:07:38.184Z,0
2017-07-10T01:08:18.642Z,0
2017-07-10T01:08:59.102Z,0
2017-07-10T01:09:39.560Z,0
2017-07-10T01:10:20.032Z,0
2017-07-10T01:11:00.491Z,0
2017-07-10T01:11:40.950Z,0
2017-07-10T01:12:21.408Z,0
2017-07-10T01:13:01.871Z,0
2017-07-10T01:13:42.328Z,0
2017-07-10T01:14:22.780Z,0
2017-07-10T01:15:03.228Z,0
2017-07-10T01:15:43.682Z,0
2017-07-10T01:16:24.141Z,0
2017-07-10T01:17:04.604Z,0
2017-07-10T01:17:45.066Z,0
2017-07-10T01:18:25.524Z,0
2017-07-10T01:19:05.978Z,0
2017-07-10T01:19:46.435Z,0
2017-07-10T01:20:26.894Z,0
2017-07-10T01:21:07.350Z,0
2017-07-10T01:21:47.806Z,0
2017-07-10T01:22:28.264Z,0
2017-07-10T01:23:08.725Z,0
2017-07-10T01:23:49.307Z,0
2017-07-10T01:24:29.641Z,0
2017-07-10T01:25:10.100Z,0
2017-07-10T01:25:50.545Z,0
2017-07-10T01:26:31.008Z,0
2017-07-10T01:27:11.468Z,0
2017-07-10T01:27:51.927Z,0
2017-07-10T01:28:32.383Z,0
2017-07-10T01:29:12.837Z,0
2017-07-10T01:29:53.294Z,0
2017-07-10T01:30:33.754Z,0
2017-07-10T01:31:14.194Z,0
2017-07-10T01:31:54.651Z,0
2017-07-10T01:32:35.110Z,0
2017-07-10T01:33:15.557Z,0
2017-07-10T01:33:56.015Z,0
2017-07-10T01:34:36.473Z,0
2017-07-10T01:35:16.930Z,0
2017-07-10T01:35:57.396Z,0
2017-07-10T01:36:37.857Z,0
2017-07-10T01:37:18.323Z,0
2017-07-10T01:37:58.780Z,0
2017-07-10T01:38:39.244Z,0
2017-07-10T01:39:19.699Z,0
2017-07-10T01:40:00.156Z,0
2017-07-10T01:40:40.616Z,0
2017-07-10T01:41:21.074Z,0
2017-07-10T01:42:01.530Z,0
2017-07-10T01:42:41.990Z,0
2017-07-10T01:43:22.449Z,0
2017-07-10T01:44:02.906Z,0
2017-07-10T01:44:43.359Z,0
2017-07-10T01:45:23.817Z,0
2017-07-10T01:46:04.278Z,0
2017-07-10T01:46:44.737Z,0
2017-07-10T01:47:25.228Z,0
2017-07-10T01:48:05.659Z,0
2017-07-10T01:48:46.119Z,0
2017-07-10T01:49:26.581Z,0
2017-07-10T01:50:07.042Z,0
2017-07-10T01:50:47.491Z,0
2017-07-10T01:51:27.952Z,0
2017-07-10T01:52:08.395Z,0
2017-07-10T01:52:48.868Z,0
2017-07-10T01:53:29.317Z,0
2017-07-10T01:54:09.800Z,0
2017-07-10T01:54:50.270Z,0
2017-07-10T01:55:30.729Z,0
2017-07-10T01:56:11.187Z,0
2017-07-10T01:56:51.655Z,0
2017-07-10T01:57:32.110Z,0
2017-07-10T01:58:12.580Z,0
2017-07-10T01:58:53.030Z,0
2017-07-10T01:59:33.489Z,0
2017-07-10T02:00:13.950Z,0
2017-07-10T02:00:54.404Z,0
2017-07-10T02:01:34.865Z,0
2017-07-10T02:02:15.313Z,0
2017-07-10T02:02:55.770Z,0
2017-07-10T02:03:36.244Z,0
2017-07-10T02:04:16.699Z,0
2017-07-10T02:04:57.149Z,0
2017-07-10T02:05:37.606Z,0
2017-07-10T02:06:18.114Z,0
2017-07-10T02:06:58.561Z,0
2017-07-10T02:07:39.008Z,0
2017-07-10T02:08:19.747Z,0
2017-07-10T02:09:00.205Z,0
2017-07-10T02:09:40.659Z,0
2017-07-10T02:10:21.112Z,0
2017-07-10T02:11:01.570Z,0
2017-07-10T02:11:42.037Z,0
2017-07-10T02:12:22.496Z,0
2017-07-10T02:13:02.956Z,0
2017-07-10T02:13:43.416Z,0
2017-07-10T02:14:23.875Z,0
2017-07-10T02:15:04.331Z,0
2017-07-10T02:15:44.787Z,0
2017-07-10T02:16:25.260Z,0
2017-07-10T02:17:05.692Z,0
2017-07-10T02:17:46.142Z,0
2017-07-10T02:18:26.600Z,0
2017-07-10T02:19:07.059Z,0
2017-07-10T02:19:47.522Z,0
2017-07-10T02:20:27.983Z,0
2017-07-10T02:21:08.442Z,0
2017-07-10T02:21:48.901Z,0
2017-07-10T02:22:29.360Z,0
2017-07-10T02:23:09.828Z,0
2017-07-10T02:23:50.282Z,0
2017-07-10T02:24:30.736Z,0
2017-07-10T02:25:11.192Z,0
2017-07-10T02:25:51.651Z,0
2017-07-10T02:26:32.121Z,0
2017-07-10T02:27:12.578Z,0
2017-07-10T02:27:53.035Z,0
2017-07-10T02:28:33.492Z,0
2017-07-10T02:29:13.951Z,0
2017-07-10T02:29:54.411Z,0
2017-07-10T02:30:34.870Z,0
2017-07-10T02:31:15.323Z,0
2017-07-10T02:31:55.822Z,0
2017-07-10T02:32:36.296Z,0
2017-07-10T02:33:16.703Z,0
2017-07-10T02:33:57.258Z,0
2017-07-10T02:34:37.721Z,0
2017-07-10T02:35:18.174Z,0
2017-07-10T02:35:58.632Z,0
2017-07-10T02:36:39.094Z,0
2017-07-10T02:37:19.556Z,0
2017-07-10T02:38:00.009Z,0
2017-07-10T02:38:40.462Z,0
2017-07-10T02:39:20.914Z,0
2017-07-10T02:40:01.377Z,0
2017-07-10T02:40:41.838Z,0
2017-07-10T02:41:22.298Z,0
2017-07-10T02:42:02.759Z,0
2017-07-10T02:42:43.216Z,0
2017-07-10T02:43:23.673Z,0
2017-07-10T02:44:04.128Z,0
2017-07-10T02:44:44.588Z,0
2017-07-10T02:45:25.045Z,0
2017-07-10T02:46:05.505Z,0
2017-07-10T02:46:45.971Z,0
2017-07-10T02:47:26.434Z,0
2017-07-10T02:48:06.898Z,0
2017-07-10T02:48:47.359Z,0
2017-07-10T02:49:27.859Z,0
2017-07-10T02:50:08.266Z,0
2017-07-10T02:50:48.727Z,0
2017-07-10T02:51:29.180Z,0
2017-07-10T02:52:09.639Z,0
2017-07-10T02:52:50.098Z,0
2017-07-10T02:53:30.580Z,0
2017-07-10T02:54:11.034Z,0
2017-07-10T02:54:51.486Z,0
2017-07-10T02:55:31.935Z,0
2017-07-10T02:56:12.480Z,0
2017-07-10T02:56:52.935Z,0
2017-07-10T02:57:33.410Z,0
2017-07-10T02:58:13.868Z,0
2017-07-10T02:58:54.356Z,0
2017-07-10T02:59:34.800Z,0
2017-07-10T03:00:15.262Z,0
2017-07-10T03:00:55.719Z,0
2017-07-10T03:01:36.179Z,0
2017-07-10T03:02:16.635Z,0
2017-07-10T03:02:57.094Z,0
2017-07-10T03:03:37.553Z,0
2017-07-10T03:04:18.035Z,0
2017-07-10T03:04:58.492Z,0
2017-07-10T03:05:38.955Z,0
2017-07-10T03:06:19.410Z,0
2017-07-10T03:06:59.867Z,0
2017-07-10T03:07:40.324Z,0
2017-07-10T03:08:20.780Z,0
2017-07-10T03:09:01.220Z,0
2017-07-10T03:09:41.685Z,0
2017-07-10T03:10:22.142Z,0
2017-07-10T03:11:02.607Z,0
2017-07-10T03:11:43.069Z,0
2017-07-10T03:12:23.572Z,0
2017-07-10T03:13:03.981Z,0
2017-07-10T03:13:44.438Z,0
2017-07-10T03:14:24.903Z,0
2017-07-10T03:15:05.363Z,0
2017-07-10T03:15:45.825Z,0
2017-07-10T03:16:26.283Z,0
2017-07-10T03:17:06.740Z,0
2017-07-10T03:17:47.201Z,0
2017-07-10T03:18:27.659Z,0
2017-07-10T03:19:08.122Z,0
2017-07-10T03:19:48.604Z,0
2017-07-10T03:20:29.065Z,0
2017-07-10T03:21:09.529Z,0
2017-07-10T03:21:49.988Z,0
2017-07-10T03:22:30.430Z,0
2017-07-10T03:23:10.884Z,0
2017-07-10T03:23:51.350Z,0
2017-07-10T03:24:31.817Z,0
2017-07-10T03:25:12.272Z,0
2017-07-10T03:25:52.738Z,0
2017-07-10T03:26:33.200Z,0
2017-07-10T03:27:13.652Z,0
2017-07-10T03:27:54.112Z,0
2017-07-10T03:28:34.574Z,0
2017-07-10T03:29:15.032Z,0
2017-07-10T03:29:55.490Z,0
2017-07-10T03:30:35.941Z,0
2017-07-10T03:31:16.391Z,0
2017-07-10T03:31:56.851Z,0
2017-07-10T03:32:37.306Z,0
2017-07-10T03:33:17.768Z,0
2017-07-10T03:33:58.227Z,0
2017-07-10T03:34:38.685Z,0
2017-07-10T03:35:19.139Z,0
2017-07-10T03:35:59.607Z,0
2017-07-10T03:36:40.070Z,0
2017-07-10T03:37:20.527Z,0
2017-07-10T03:38:00.998Z,0
2017-07-10T03:38:41.450Z,0
2017-07-10T03:39:21.907Z,0
2017-07-10T03:40:02.365Z,0
2017-07-10T03:40:42.838Z,0
2017-07-10T03:41:23.312Z,0
2017-07-10T03:42:03.777Z,0
2017-07-10T03:42:44.230Z,0
2017-07-10T03:43:24.692Z,0
2017-07-10T03:44:05.149Z,0
2017-07-10T03:44:45.604Z,0
2017-07-10T03:45:26.058Z,0
2017-07-10T03:46:06.514Z,0
2017-07-10T03:46:46.970Z,0
2017-07-10T03:47:27.432Z,0
2017-07-10T03:48:07.893Z,0
2017-07-10T03:48:48.354Z,0
2017-07-10T03:49:28.807Z,0
2017-07-10T03:50:09.265Z,0
2017-07-10T03:50:49.723Z,0
2017-07-10T03:51:30.183Z,0
2017-07-10T03:52:10.653Z,0
2017-07-10T03:52:51.116Z,0
2017-07-10T03:53:31.578Z,0
2017-07-10T03:54:12.034Z,0
2017-07-10T03:54:52.492Z,0
2017-07-10T03:55:32.950Z,0
2017-07-10T03:56:15.012Z,0
2017-07-10T03:56:55.472Z,0
2017-07-10T03:57:35.919Z,0
2017-07-10T03:58:16.370Z,0
2017-07-10T03:58:56.828Z,0
2017-07-10T03:59:37.291Z,0
2017-07-10T04:00:17.758Z,0
2017-07-10T04:00:58.220Z,0
2017-07-10T04:01:38.680Z,0
2017-07-10T04:02:19.143Z,0
2017-07-10T04:02:59.600Z,0
2017-07-10T04:03:40.059Z,0
2017-07-10T04:04:20.515Z,0
2017-07-10T04:05:00.972Z,0
2017-07-10T04:05:41.430Z,0
2017-07-10T04:06:21.883Z,0
2017-07-10T04:07:02.344Z,0
2017-07-10T04:07:42.798Z,0
2017-07-10T04:08:23.257Z,0
2017-07-10T04:09:03.694Z,0
2017-07-10T04:09:44.155Z,0
2017-07-10T04:10:24.618Z,0
2017-07-10T04:11:05.079Z,0
2017-07-10T04:11:45.539Z,0
2017-07-10T04:12:25.994Z,0
2017-07-10T04:13:06.456Z,0
2017-07-10T04:13:46.914Z,0
2017-07-10T04:14:27.371Z,0
2017-07-10T04:15:07.888Z,0
2017-07-10T04:15:48.284Z,0
2017-07-10T04:16:28.743Z,0
2017-07-10T04:17:09.208Z,0
2017-07-10T04:17:49.672Z,0
2017-07-10T04:18:30.127Z,0
2017-07-10T04:19:10.581Z,0
2017-07-10T04:19:51.049Z,0
2017-07-10T04:20:31.535Z,0
2017-07-10T04:21:11.965Z,0
2017-07-10T04:21:52.416Z,0
2017-07-10T04:22:32.872Z,0
2017-07-10T04:23:13.329Z,0
2017-07-10T04:23:53.786Z,0
2017-07-10T04:24:34.242Z,0
2017-07-10T04:25:14.703Z,0
2017-07-10T04:25:55.204Z,0
2017-07-10T04:26:35.606Z,0
2017-07-10T04:27:16.061Z,0
2017-07-10T04:27:56.517Z,0
2017-07-10T04:28:36.975Z,0
2017-07-10T04:29:17.434Z,0
2017-07-10T04:29:57.892Z,0
2017-07-10T04:30:38.352Z,0
2017-07-10T04:31:18.817Z,0
2017-07-10T04:31:59.276Z,0
2017-07-10T04:32:39.733Z,0
2017-07-10T04:33:20.191Z,0
2017-07-10T04:34:00.646Z,0
2017-07-10T04:34:41.103Z,0
2017-07-10T04:35:21.561Z,0
2017-07-10T04:36:02.025Z,0
2017-07-10T04:36:42.484Z,0
2017-07-10T04:37:22.942Z,0
2017-07-10T04:38:03.399Z,0
2017-07-10T04:38:43.861Z,0
2017-07-10T04:39:24.322Z,0
2017-07-10T04:40:04.781Z,0
2017-07-10T04:40:45.240Z,0
2017-07-10T04:41:25.690Z,0
2017-07-10T04:42:06.155Z,0
2017-07-10T04:42:46.610Z,0
2017-07-10T04:43:27.069Z,0
2017-07-10T04:44:07.524Z,0
2017-07-10T04:44:47.986Z,0
2017-07-10T04:45:28.443Z,0
2017-07-10T04:46:08.903Z,0
2017-07-10T04:46:49.364Z,0
2017-07-10T04:47:29.814Z,0
2017-07-10T04:48:10.269Z,0
2017-07-10T04:48:50.702Z,0
2017-07-10T04:49:31.162Z,0
2017-07-10T04:50:11.619Z,0
2017-07-10T04:50:52.079Z,0
2017-07-10T04:51:32.542Z,0
2017-07-10T04:52:13.004Z,0
2017-07-10T04:52:53.463Z,0
2017-07-10T04:53:33.923Z,0
2017-07-10T04:54:14.380Z,0
2017-07-10T04:54:54.838Z,0
2017-07-10T04:55:35.297Z,0
2017-07-10T04:56:15.745Z,0
2017-07-10T04:56:56.206Z,0
2017-07-10T04:57:36.656Z,0
2017-07-10T04:58:17.122Z,0
2017-07-10T04:58:57.587Z,0
2017-07-10T04:59:38.046Z,0
2017-07-10T05:00:18.505Z,0
2017-07-10T05:00:58.961Z,0
2017-07-10T05:01:39.418Z,0
2017-07-10T05:02:19.879Z,0
2017-07-10T05:03:00.335Z,0
2017-07-10T05:03:40.805Z,0
2017-07-10T05:04:21.266Z,0
2017-07-10T05:05:01.723Z,0
2017-07-10T05:05:42.187Z,0
2017-07-10T05:06:22.639Z,0
2017-07-10T05:07:03.098Z,0
2017-07-10T05:07:43.558Z,0
2017-07-10T05:08:24.041Z,0
2017-07-10T05:09:04.499Z,0
2017-07-10T05:09:44.953Z,0
2017-07-10T05:10:25.410Z,0
2017-07-10T05:11:05.857Z,0
2017-07-10T05:11:46.315Z,0
2017-07-10T05:12:26.772Z,0
2017-07-10T05:13:07.225Z,0
2017-07-10T05:13:47.681Z,0
2017-07-10T05:14:28.135Z,0
2017-07-10T05:15:08.593Z,0
2017-07-10T05:15:49.051Z,0
2017-07-10T05:16:29.508Z,0
2017-07-10T05:17:09.969Z,0
2017-07-10T05:17:50.426Z,0
2017-07-10T05:18:30.891Z,0
2017-07-10T05:19:11.351Z,0
2017-07-10T05:19:51.810Z,0
2017-07-10T05:20:32.265Z,0
2017-07-10T05:21:12.724Z,0
2017-07-10T05:21:53.188Z,0
2017-07-10T05:22:33.646Z,0
2017-07-10T05:23:14.110Z,0
2017-07-10T05:23:54.559Z,0
2017-07-10T05:24:35.016Z,0
2017-07-10T05:25:15.501Z,0
2017-07-10T05:25:55.948Z,0
2017-07-10T05:26:36.418Z,0
2017-07-10T05:27:16.867Z,0
2017-07-10T05:27:57.326Z,0
2017-07-10T05:28:37.783Z,0
2017-07-10T05:29:18.239Z,0
2017-07-10T05:29:58.696Z,0
2017-07-10T05:30:39.155Z,0
2017-07-10T05:31:19.619Z,0
2017-07-10T05:32:00.075Z,0
2017-07-10T05:32:40.533Z,0
2017-07-10T05:33:20.997Z,0
2017-07-10T05:34:01.462Z,0
2017-07-10T05:34:41.910Z,0
2017-07-10T05:35:22.371Z,0
2017-07-10T05:36:02.825Z,0
2017-07-10T05:36:43.283Z,0
2017-07-10T05:37:23.741Z,0
2017-07-10T05:38:04.199Z,0
2017-07-10T05:38:44.658Z,0
2017-07-10T05:39:25.120Z,0
2017-07-10T05:40:05.578Z,0
2017-07-10T05:40:46.033Z,0
2017-07-10T05:41:26.493Z,0
2017-07-10T05:42:06.946Z,0
2017-07-10T05:42:47.403Z,0
2017-07-10T05:43:27.859Z,0
2017-07-10T05:44:08.316Z,5
2017-07-10T05:44:48.767Z,5
2017-07-10T05:45:29.225Z,5
2017-07-10T05:46:09.684Z,5
2017-07-10T05:46:50.144Z,5
2017-07-10T05:47:30.600Z,5
2017-07-10T05:48:11.055Z,5
2017-07-10T05:48:51.517Z,5
2017-07-10T05:49:31.973Z,5
2017-07-10T05:50:12.439Z,5
2017-07-10T05:50:52.898Z,5
2017-07-10T05:51:33.351Z,5
2017-07-10T05:52:13.810Z,5
2017-07-10T05:52:54.266Z,5
2017-07-10T05:53:34.729Z,5
2017-07-10T05:54:15.189Z,5
2017-07-10T05:54:55.647Z,5
2017-07-10T05:55:36.106Z,5
2017-07-10T05:56:16.573Z,5
2017-07-10T05:56:57.022Z,10
2017-07-10T05:57:37.476Z,10
2017-07-10T05:58:17.940Z,10
2017-07-10T05:58:58.399Z,10
2017-07-10T05:59:38.855Z,10
2017-07-10T06:00:19.316Z,10
2017-07-10T06:00:59.782Z,10
2017-07-10T06:01:40.233Z,10
2017-07-10T06:02:20.696Z,10
2017-07-10T06:03:01.152Z,10
2017-07-10T06:03:41.606Z,10
2017-07-10T06:04:22.071Z,10
2017-07-10T06:05:02.524Z,5
2017-07-10T06:05:42.994Z,5
2017-07-10T06:06:23.453Z,5
2017-07-10T06:07:03.906Z,5
2017-07-10T06:07:44.361Z,5
2017-07-10T06:08:24.817Z,5
2017-07-10T06:09:05.279Z,5
2017-07-10T06:09:45.728Z,5
2017-07-10T06:10:26.311Z,5
2017-07-10T06:11:06.770Z,5
2017-07-10T06:11:47.226Z,5
2017-07-10T06:12:27.683Z,5
2017-07-10T06:13:08.139Z,5
2017-07-10T06:13:48.602Z,5
2017-07-10T06:14:29.060Z,5
2017-07-10T06:15:09.518Z,5
2017-07-10T06:15:49.976Z,5
2017-07-10T06:16:30.432Z,5
2017-07-10T06:17:10.891Z,5
2017-07-10T06:17:51.350Z,5
2017-07-10T06:18:31.803Z,5
2017-07-10T06:19:12.265Z,5
2017-07-10T06:19:52.722Z,5
2017-07-10T06:20:33.177Z,5
2017-07-10T06:21:13.635Z,5
2017-07-10T06:21:54.095Z,5
2017-07-10T06:22:34.556Z,5
2017-07-10T06:23:15.009Z,5
2017-07-10T06:23:55.464Z,5
2017-07-10T06:24:35.914Z,5
2017-07-10T06:25:16.374Z,5
2017-07-10T06:25:56.839Z,5
2017-07-10T06:26:37.299Z,10
2017-07-10T06:27:17.761Z,10
2017-07-10T06:27:58.217Z,10
2017-07-10T06:28:38.676Z,10
2017-07-10T06:29:19.135Z,10
2017-07-10T06:29:59.594Z,10
2017-07-10T06:30:40.050Z,10
2017-07-10T06:31:20.503Z,10
2017-07-10T06:32:00.987Z,10
2017-07-10T06:32:41.445Z,10
2017-07-10T06:33:21.902Z,10
2017-07-10T06:34:02.363Z,10
2017-07-10T06:34:42.824Z,10
2017-07-10T06:35:23.292Z,10
2017-07-10T06:36:03.748Z,10
2017-07-10T06:36:44.205Z,10
2017-07-10T06:37:24.674Z,10
2017-07-10T06:38:05.114Z,10
2017-07-10T06:38:45.572Z,10
2017-07-10T06:39:26.030Z,10
2017-07-10T06:40:06.486Z,10
2017-07-10T06:40:46.944Z,10
2017-07-10T06:41:27.402Z,10
2017-07-10T06:42:07.859Z,10
2017-07-10T06:42:48.317Z,10
2017-07-10T06:43:28.770Z,10
2017-07-10T06:44:09.228Z,10
2017-07-10T06:44:49.693Z,10
2017-07-10T06:45:30.149Z,5
2017-07-10T06:46:10.607Z,5
2017-07-10T06:46:51.084Z,5
2017-07-10T06:47:31.539Z,5
2017-07-10T06:48:11.997Z,5
2017-07-10T06:48:52.454Z,5
2017-07-10T06:49:32.913Z,5
2017-07-10T06:50:13.368Z,5
2017-07-10T06:50:53.830Z,5
2017-07-10T06:51:34.283Z,5
2017-07-10T06:52:14.738Z,5
2017-07-10T06:52:55.195Z,5
2017-07-10T06:53:35.651Z,5
2017-07-10T06:54:16.115Z,5
2017-07-10T06:54:56.570Z,5
2017-07-10T06:55:37.034Z,5
2017-07-10T06:56:17.488Z,5
2017-07-10T06:56:57.948Z,5
2017-07-10T06:57:38.406Z,5
2017-07-10T06:58:18.862Z,5
2017-07-10T06:58:59.322Z,5
2017-07-10T06:59:39.777Z,5
2017-07-10T07:00:20.234Z,5
2017-07-10T07:01:00.689Z,5
2017-07-10T07:01:41.151Z,5
2017-07-10T07:02:21.613Z,5
2017-07-10T07:03:02.062Z,5
2017-07-10T07:03:42.520Z,5
2017-07-10T07:04:22.999Z,5
2017-07-10T07:05:03.458Z,5
2017-07-10T07:05:43.961Z,5
2017-07-10T07:06:24.426Z,5
2017-07-10T07:07:04.831Z,5
2017-07-10T07:07:45.286Z,5
2017-07-10T07:08:25.784Z,5
2017-07-10T07:09:06.214Z,5
2017-07-10T07:09:46.677Z,5
2017-07-10T07:10:27.132Z,10
2017-07-10T07:11:07.593Z,10
2017-07-10T07:11:48.044Z,10
2017-07-10T07:12:28.504Z,15
2017-07-10T07:13:08.966Z,15
2017-07-10T07:13:49.425Z,15
2017-07-10T07:14:29.884Z,15
2017-07-10T07:15:10.338Z,15
2017-07-10T07:15:50.795Z,15
2017-07-10T07:16:31.254Z,15
2017-07-10T07:17:11.703Z,15
2017-07-10T07:17:52.177Z,15
2017-07-10T07:18:32.706Z,15
2017-07-10T07:19:13.087Z,10
2017-07-10T07:19:53.544Z,10
2017-07-10T07:20:34.007Z,10
2017-07-10T07:21:14.735Z,10
2017-07-10T07:21:55.193Z,10
2017-07-10T07:22:35.648Z,10
2017-07-10T07:23:16.109Z,10
2017-07-10T07:23:56.567Z,10
2017-07-10T07:24:37.032Z,10
2017-07-10T07:25:17.488Z,10
2017-07-10T07:25:57.969Z,10
2017-07-10T07:26:38.425Z,10
2017-07-10T07:27:18.884Z,10
2017-07-10T07:27:59.342Z,10
2017-07-10T07:28:39.804Z,10
2017-07-10T07:29:20.257Z,10
2017-07-10T07:30:00.721Z,10
2017-07-10T07:30:41.180Z,10
2017-07-10T07:31:21.635Z,10
2017-07-10T07:32:02.091Z,10
2017-07-10T07:32:42.550Z,10
2017-07-10T07:33:23.242Z,10
2017-07-10T07:34:03.700Z,10
2017-07-10T07:34:44.160Z,10
2017-07-10T07:35:24.620Z,10
2017-07-10T07:36:05.071Z,10
2017-07-10T07:36:45.528Z,10
2017-07-10T07:37:26.011Z,10
2017-07-10T07:38:06.514Z,10
2017-07-10T07:38:46.914Z,10
2017-07-10T07:39:27.360Z,10
2017-07-10T07:40:07.815Z,10
2017-07-10T07:40:48.271Z,10
2017-07-10T07:41:28.752Z,10
2017-07-10T07:42:09.218Z,10
2017-07-10T07:42:49.682Z,10
2017-07-10T07:43:30.141Z,10
2017-07-10T07:44:10.612Z,10
2017-07-10T07:44:51.040Z,10
2017-07-10T07:45:31.493Z,10
2017-07-10T07:46:11.951Z,10
2017-07-10T07:46:52.403Z,10
2017-07-10T07:47:32.870Z,10
2017-07-10T07:48:13.326Z,10
2017-07-10T07:48:53.789Z,10
2017-07-10T07:49:34.247Z,10
2017-07-10T07:50:14.697Z,10
2017-07-10T07:50:55.153Z,10
2017-07-10T07:51:35.610Z,15
2017-07-10T07:52:16.057Z,15
2017-07-10T07:52:56.518Z,15
2017-07-10T07:53:36.973Z,15
2017-07-10T07:54:17.432Z,15
2017-07-10T07:54:57.901Z,15
2017-07-10T07:55:38.359Z,15
2017-07-10T07:56:18.815Z,15
2017-07-10T07:56:59.269Z,20
2017-07-10T07:57:39.722Z,20
2017-07-10T07:58:20.175Z,20
2017-07-10T07:59:00.632Z,20
2017-07-10T07:59:41.088Z,25
2017-07-10T08:00:21.549Z,25
2017-07-10T08:01:02.002Z,30
2017-07-10T08:01:42.460Z,30
2017-07-10T08:02:22.915Z,30
2017-07-10T08:03:03.364Z,30
2017-07-10T08:03:43.829Z,30
2017-07-10T08:04:24.285Z,30
2017-07-10T08:05:04.750Z,30
2017-07-10T08:05:45.205Z,30
2017-07-10T08:06:25.663Z,25
2017-07-10T08:07:06.122Z,25
2017-07-10T08:09:24.426Z,20
2017-07-10T08:10:04.889Z,15
2017-07-10T08:10:45.346Z,15
2017-07-10T08:11:25.838Z,15
2017-07-10T08:12:06.283Z,15
2017-07-10T08:12:46.765Z,15
2017-07-10T08:13:27.187Z,15
2017-07-10T08:14:07.643Z,15
2017-07-10T08:14:48.110Z,15
2017-07-10T08:15:28.984Z,15
2017-07-10T08:16:09.436Z,15
2017-07-10T08:16:49.893Z,15
2017-07-10T08:17:30.348Z,15
2017-07-10T08:18:10.803Z,20
2017-07-10T08:18:51.274Z,20
2017-07-10T08:19:31.729Z,20
2017-07-10T08:20:12.187Z,20
2017-07-10T08:20:52.647Z,20
2017-07-10T08:21:33.090Z,25
2017-07-10T08:22:13.537Z,25
2017-07-10T08:22:53.989Z,30
2017-07-10T08:23:34.434Z,30
2017-07-10T08:24:14.886Z,30
2017-07-10T08:24:55.640Z,30
2017-07-10T08:25:36.014Z,30
2017-07-10T08:26:16.319Z,30
2017-07-10T08:26:56.762Z,30
2017-07-10T08:27:37.220Z,30
2017-07-10T08:28:17.668Z,30
2017-07-10T08:28:58.121Z,35
2017-07-10T08:29:38.668Z,35
2017-07-10T08:31:51.535Z,25
2017-07-10T08:32:32.057Z,25
2017-07-10T08:33:12.461Z,25
2017-07-10T08:33:52.918Z,25
2017-07-10T08:34:33.369Z,25
2017-07-10T08:35:13.824Z,30
2017-07-10T08:35:54.294Z,35
2017-07-10T08:36:34.747Z,35
2017-07-10T08:37:15.199Z,40
2017-07-10T08:37:55.648Z,40
2017-07-10T08:38:36.087Z,40
2017-07-10T08:39:16.546Z,40
2017-07-10T08:39:57.002Z,40
2017-07-10T08:40:37.456Z,40
2017-07-10T08:41:17.917Z,40
2017-07-10T08:41:58.364Z,40
2017-07-10T08:42:38.816Z,40
2017-07-10T08:43:19.265Z,35
2017-07-10T08:43:59.707Z,35
2017-07-10T08:44:40.160Z,30
2017-07-10T08:45:20.609Z,30
2017-07-10T08:46:01.056Z,25
2017-07-10T08:46:41.505Z,25
2017-07-10T08:47:21.960Z,25
2017-07-10T08:48:02.411Z,25
2017-07-10T08:48:42.876Z,25
2017-07-10T08:49:23.324Z,25
2017-07-10T08:50:03.782Z,25
2017-07-10T08:50:44.245Z,25
2017-07-10T08:51:24.676Z,25
2017-07-10T08:52:05.126Z,25
2017-07-10T08:52:45.574Z,30
2017-07-10T08:53:26.026Z,30
2017-07-10T08:54:06.482Z,30
2017-07-10T08:54:46.939Z,30
2017-07-10T08:55:27.394Z,30
2017-07-10T08:56:07.839Z,35
2017-07-10T08:56:48.299Z,35
2017-07-10T08:57:28.935Z,40
2017-07-10T08:58:09.236Z,40
2017-07-10T08:58:49.694Z,45
2017-07-10T08:59:30.372Z,45
2017-07-10T09:00:10.829Z,45
2017-07-10T09:00:51.293Z,45
2017-07-10T09:01:31.742Z,45
2017-07-10T09:02:12.200Z,50
2017-07-10T09:02:52.657Z,50
2017-07-10T09:03:33.116Z,50
2017-07-10T09:04:13.932Z,55
2017-07-10T09:04:54.247Z,55
2017-07-10T09:05:34.715Z,55
2017-07-10T09:06:15.168Z,60
2017-07-10T09:06:55.645Z,60
2017-07-10T09:07:36.089Z,65
2017-07-10T09:08:16.537Z,65
2017-07-10T09:08:57.014Z,65
2017-07-10T09:09:37.512Z,70
2017-07-10T09:10:17.985Z,70
2017-07-10T09:10:58.529Z,75
2017-07-10T09:11:38.985Z,95
2017-07-10T09:12:19.488Z,110
2017-07-10T09:12:59.945Z,75
2017-07-10T09:13:40.394Z,70
2017-07-10T09:14:20.841Z,65
2017-07-10T09:15:01.287Z,65
2017-07-10T09:15:41.795Z,65
2017-07-10T09:16:22.252Z,65
2017-07-10T09:17:02.692Z,65
2017-07-10T09:17:43.185Z,60
2017-07-10T09:18:23.593Z,60
2017-07-10T09:19:04.044Z,60
2017-07-10T09:19:44.500Z,55
2017-07-10T09:20:24.958Z,55
2017-07-10T09:21:05.421Z,55
2017-07-10T09:21:45.872Z,50
2017-07-10T09:22:26.327Z,50
2017-07-10T09:23:07.098Z,50
2017-07-10T09:23:47.251Z,45
2017-07-10T09:24:28.178Z,45
2017-07-10T09:25:08.629Z,40
2017-07-10T09:27:42.127Z,45
2017-07-10T09:28:22.573Z,45
2017-07-10T09:29:03.026Z,45
2017-07-10T09:29:43.482Z,45
2017-07-10T09:30:23.941Z,45
2017-07-10T09:31:04.398Z,45
2017-07-10T09:31:44.912Z,45
2017-07-10T09:32:25.367Z,50
2017-07-10T09:33:05.822Z,50
2017-07-10T09:33:46.381Z,45
2017-07-10T09:34:26.836Z,45
2017-07-10T09:35:07.293Z,50
2017-07-10T09:35:47.746Z,50
2017-07-10T09:36:28.645Z,55
2017-07-10T09:37:09.100Z,60
2017-07-10T09:37:49.578Z,60
2017-07-10T09:38:30.033Z,65
2017-07-10T09:39:10.696Z,65
2017-07-10T09:39:51.167Z,65
2017-07-10T09:40:31.616Z,65
2017-07-10T09:41:12.073Z,70
2017-07-10T09:41:52.792Z,75
2017-07-10T09:42:33.242Z,80
2017-07-10T09:43:13.696Z,80
2017-07-10T09:43:54.158Z,75
2017-07-10T09:44:34.611Z,70
2017-07-10T09:45:15.064Z,65
2017-07-10T09:45:55.508Z,65
2017-07-10T09:46:36.153Z,60
2017-07-10T09:47:16.532Z,60
2017-07-10T09:47:56.985Z,65
2017-07-10T09:48:37.448Z,70
2017-07-10T09:49:20.009Z,75
2017-07-10T09:50:00.462Z,75
2017-07-10T09:50:40.919Z,75
2017-07-10T09:51:21.385Z,70
2017-07-10T09:52:01.895Z,70
2017-07-10T09:52:42.306Z,65
2017-07-10T09:53:22.759Z,65
2017-07-10T09:54:03.210Z,65
2017-07-10T09:54:43.667Z,70
2017-07-10T09:55:24.125Z,70
2017-07-10T09:56:04.571Z,75